sensor_id;sensor_type;location;lat;lon;timestamp;pressure;altitude;pressure_sealevel;temperature;humidity
45345;BME280;31078;48.304;11.896;2023-05-11T00:01:44;96070.53;;;8.61;100.00
45345;BME280;31078;48.304;11.896;2023-05-11T00:04:11;96073.25;;;8.61;100.00
45345;BME280;31078;48.304;11.896;2023-05-11T00:06:38;96065.84;;;8.53;100.00
45345;BME280;31078;48.304;11.896;2023-05-11T00:09:04;96063.88;;;8.45;100.00
45345;BME280;31078;48.304;11.896;2023-05-11T00:11:33;96066.97;;;8.52;100.00
45345;BME280;31078;48.304;11.896;2023-05-11T00:14:00;96062.66;;;8.51;100.00
45345;BME280;31078;48.304;11.896;2023-05-11T00:16:28;96059.91;;;8.43;100.00
45345;BME280;31078;48.304;11.896;2023-05-11T00:18:54;96067.72;;;8.44;100.00
45345;BME280;31078;48.304;11.896;2023-05-11T00:21:21;96059.69;;;8.39;100.00
45345;BME280;31078;48.304;11.896;2023-05-11T00:23:47;96060.34;;;8.36;100.00
45345;BME280;31078;48.304;11.896;2023-05-11T00:26:14;96061.16;;;8.36;100.00
45345;BME280;31078;48.304;11.896;2023-05-11T00:28:41;96048.09;;;8.47;100.00
45345;BME280;31078;48.304;11.896;2023-05-11T00:31:07;96052.31;;;8.31;100.00
45345;BME280;31078;48.304;11.896;2023-05-11T00:33:35;96046.88;;;8.31;100.00
45345;BME280;31078;48.304;11.896;2023-05-11T00:36:02;96046.13;;;8.39;100.00
45345;BME280;31078;48.304;11.896;2023-05-11T00:38:28;96046.13;;;8.39;100.00
45345;BME280;31078;48.304;11.896;2023-05-11T00:40:55;96038.75;;;8.31;100.00
45345;BME280;31078;48.304;11.896;2023-05-11T00:43:22;96044.91;;;8.23;100.00
45345;BME280;31078;48.304;11.896;2023-05-11T00:45:49;96035.66;;;8.24;100.00
45345;BME280;31078;48.304;11.896;2023-05-11T00:48:16;96045.09;;;8.26;100.00
45345;BME280;31078;48.304;11.896;2023-05-11T00:50:44;96042.69;;;8.25;100.00
45345;BME280;31078;48.304;11.896;2023-05-11T00:53:12;96036.19;;;8.34;100.00
45345;BME280;31078;48.304;11.896;2023-05-11T00:55:39;96036.50;;;8.33;100.00
45345;BME280;31078;48.304;11.896;2023-05-11T00:58:06;96033.09;;;8.41;100.00
45345;BME280;31078;48.304;11.896;2023-05-11T01:00:32;96037.19;;;8.39;100.00
45345;BME280;31078;48.304;11.896;2023-05-11T01:03:01;96042.94;;;8.37;100.00
45345;BME280;31078;48.304;11.896;2023-05-11T01:05:31;96037.31;;;8.33;100.00
45345;BME280;31078;48.304;11.896;2023-05-11T01:08:05;96041.44;;;8.31;100.00
45345;BME280;31078;48.304;11.896;2023-05-11T01:10:40;96039.13;;;8.38;100.00
45345;BME280;31078;48.304;11.896;2023-05-11T01:13:15;96039.34;;;8.28;100.00
45345;BME280;31078;48.304;11.896;2023-05-11T01:15:45;96034.06;;;8.23;100.00
45345;BME280;31078;48.304;11.896;2023-05-11T01:18:16;96036.91;;;8.18;100.00
45345;BME280;31078;48.304;11.896;2023-05-11T01:20:46;96037.88;;;8.22;100.00
45345;BME280;31078;48.304;11.896;2023-05-11T01:23:48;96032.47;;;8.22;100.00
45345;BME280;31078;48.304;11.896;2023-05-11T01:26:32;96032.09;;;8.15;100.00
45345;BME280;31078;48.304;11.896;2023-05-11T01:29:39;96026.31;;;8.07;100.00
45345;BME280;31078;48.304;11.896;2023-05-11T01:32:14;96027.78;;;8.14;100.00
45345;BME280;31078;48.304;11.896;2023-05-11T01:34:42;96027.16;;;8.17;100.00
45345;BME280;31078;48.304;11.896;2023-05-11T01:37:14;96025.69;;;8.10;100.00
45345;BME280;31078;48.304;11.896;2023-05-11T01:39:48;96027.16;;;8.17;100.00
45345;BME280;31078;48.304;11.896;2023-05-11T01:42:17;96026.50;;;8.11;100.00
45345;BME280;31078;48.304;11.896;2023-05-11T01:44:47;96027.63;;;8.19;100.00
45345;BME280;31078;48.304;11.896;2023-05-11T01:47:20;96022.84;;;8.16;100.00
45345;BME280;31078;48.304;11.896;2023-05-11T01:49:49;96026.69;;;8.15;100.00
45345;BME280;31078;48.304;11.896;2023-05-11T01:52:17;96027.47;;;8.15;100.00
45345;BME280;31078;48.304;11.896;2023-05-11T01:54:46;96018.13;;;8.30;100.00
45345;BME280;31078;48.304;11.896;2023-05-11T01:57:14;96016.78;;;8.19;100.00
45345;BME280;31078;48.304;11.896;2023-05-11T01:59:43;96024.63;;;8.20;100.00
45345;BME280;31078;48.304;11.896;2023-05-11T02:02:11;96026.84;;;8.18;100.00
45345;BME280;31078;48.304;11.896;2023-05-11T02:04:40;96022.06;;;8.15;100.00
45345;BME280;31078;48.304;11.896;2023-05-11T02:07:09;96019.16;;;8.11;100.00
45345;BME280;31078;48.304;11.896;2023-05-11T02:09:37;96024.94;;;8.19;100.00
45345;BME280;31078;48.304;11.896;2023-05-11T02:12:05;96018.09;;;8.21;100.00
45345;BME280;31078;48.304;11.896;2023-05-11T02:14:34;96023.84;;;8.20;100.00
45345;BME280;31078;48.304;11.896;2023-05-11T02:17:02;96018.75;;;8.27;100.00
45345;BME280;31078;48.304;11.896;2023-05-11T02:19:31;96012.53;;;8.26;100.00
45345;BME280;31078;48.304;11.896;2023-05-11T02:22:01;96010.63;;;8.27;100.00
45345;BME280;31078;48.304;11.896;2023-05-11T02:24:29;96022.47;;;8.31;100.00
45345;BME280;31078;48.304;11.896;2023-05-11T02:26:56;96016.25;;;8.30;100.00
45345;BME280;31078;48.304;11.896;2023-05-11T02:29:23;96011.59;;;8.31;100.00
45345;BME280;31078;48.304;11.896;2023-05-11T02:31:55;96009.38;;;8.33;100.00
45345;BME280;31078;48.304;11.896;2023-05-11T02:34:24;96007.34;;;8.39;100.00
45345;BME280;31078;48.304;11.896;2023-05-11T02:36:55;96001.56;;;8.31;100.00
45345;BME280;31078;48.304;11.896;2023-05-11T02:39:30;96006.66;;;8.33;100.00
45345;BME280;31078;48.304;11.896;2023-05-11T02:42:12;96003.41;;;8.22;100.00
45345;BME280;31078;48.304;11.896;2023-05-11T02:44:43;96000.66;;;8.14;100.00
45345;BME280;31078;48.304;11.896;2023-05-11T02:47:11;96007.16;;;8.04;100.00
45345;BME280;31078;48.304;11.896;2023-05-11T02:49:41;96001.88;;;7.99;100.00
45345;BME280;31078;48.304;11.896;2023-05-11T02:52:10;96003.00;;;8.06;100.00
45345;BME280;31078;48.304;11.896;2023-05-11T02:54:40;95997.94;;;8.14;100.00
45345;BME280;31078;48.304;11.896;2023-05-11T02:57:07;96001.75;;;8.13;100.00
45345;BME280;31078;48.304;11.896;2023-05-11T02:59:34;96000.78;;;8.08;100.00
45345;BME280;31078;48.304;11.896;2023-05-11T03:02:01;96001.03;;;8.21;100.00
45345;BME280;31078;48.304;11.896;2023-05-11T03:04:27;95998.66;;;8.28;100.00
45345;BME280;31078;48.304;11.896;2023-05-11T03:06:54;95993.88;;;8.25;100.00
45345;BME280;31078;48.304;11.896;2023-05-11T03:09:21;95994.47;;;8.22;100.00
45345;BME280;31078;48.304;11.896;2023-05-11T03:11:49;95996.06;;;8.23;100.00
45345;BME280;31078;48.304;11.896;2023-05-11T03:14:16;95996.84;;;8.15;100.00
45345;BME280;31078;48.304;11.896;2023-05-11T03:16:43;95993.88;;;8.25;100.00
45345;BME280;31078;48.304;11.896;2023-05-11T03:19:10;96001.84;;;8.30;100.00
45345;BME280;31078;48.304;11.896;2023-05-11T03:21:38;95998.41;;;8.38;100.00
45345;BME280;31078;48.304;11.896;2023-05-11T03:24:05;95996.41;;;8.30;100.00
45345;BME280;31078;48.304;11.896;2023-05-11T03:26:34;95994.69;;;8.34;100.00
45345;BME280;31078;48.304;11.896;2023-05-11T03:29:03;95993.97;;;8.42;100.00
45345;BME280;31078;48.304;11.896;2023-05-11T03:31:29;95998.66;;;8.28;100.00
45345;BME280;31078;48.304;11.896;2023-05-11T03:33:56;95994.53;;;8.30;100.00
45345;BME280;31078;48.304;11.896;2023-05-11T03:36:23;95989.25;;;8.34;100.00
45345;BME280;31078;48.304;11.896;2023-05-11T03:38:52;95984.78;;;8.29;100.00
45345;BME280;31078;48.304;11.896;2023-05-11T03:41:20;95990.91;;;8.13;100.00
45345;BME280;31078;48.304;11.896;2023-05-11T03:43:50;95993.69;;;8.21;100.00
45345;BME280;31078;48.304;11.896;2023-05-11T03:46:20;95988.00;;;8.31;100.00
45345;BME280;31078;48.304;11.896;2023-05-11T03:48:47;95980.72;;;8.18;100.00
45345;BME280;31078;48.304;11.896;2023-05-11T03:51:13;95989.53;;;8.24;100.00
45345;BME280;31078;48.304;11.896;2023-05-11T03:53:40;95983.97;;;8.29;100.00
45345;BME280;31078;48.304;11.896;2023-05-11T03:56:07;95985.19;;;8.45;100.00
45345;BME280;31078;48.304;11.896;2023-05-11T03:58:37;95982.19;;;8.55;100.00
45345;BME280;31078;48.304;11.896;2023-05-11T04:01:05;95986.06;;;8.63;100.00
45345;BME280;31078;48.304;11.896;2023-05-11T04:03:33;95982.91;;;8.70;100.00
45345;BME280;31078;48.304;11.896;2023-05-11T04:06:00;95990.72;;;8.62;100.00
45345;BME280;31078;48.304;11.896;2023-05-11T04:08:27;95982.34;;;8.50;100.00
45345;BME280;31078;48.304;11.896;2023-05-11T04:10:53;95976.78;;;8.55;100.00
45345;BME280;31078;48.304;11.896;2023-05-11T04:13:20;95973.53;;;8.45;100.00
45345;BME280;31078;48.304;11.896;2023-05-11T04:15:46;95984.91;;;8.55;100.00
45345;BME280;31078;48.304;11.896;2023-05-11T04:18:13;95975.13;;;8.37;100.00
45345;BME280;31078;48.304;11.896;2023-05-11T04:20:41;95977.22;;;8.18;100.00
45345;BME280;31078;48.304;11.896;2023-05-11T04:23:07;95978.03;;;8.18;100.00
45345;BME280;31078;48.304;11.896;2023-05-11T04:25:34;95978.66;;;8.15;100.00
45345;BME280;31078;48.304;11.896;2023-05-11T04:28:00;95979.47;;;7.93;100.00
45345;BME280;31078;48.304;11.896;2023-05-11T04:30:26;95986.66;;;7.89;100.00
45345;BME280;31078;48.304;11.896;2023-05-11T04:32:53;95986.47;;;7.85;100.00
45345;BME280;31078;48.304;11.896;2023-05-11T04:35:19;95985.19;;;7.83;100.00
45345;BME280;31078;48.304;11.896;2023-05-11T04:37:49;95994.91;;;7.84;100.00
45345;BME280;31078;48.304;11.896;2023-05-11T04:40:15;95988.25;;;7.90;100.00
45345;BME280;31078;48.304;11.896;2023-05-11T04:42:42;95993.16;;;7.88;100.00
45345;BME280;31078;48.304;11.896;2023-05-11T04:45:09;95982.56;;;8.00;100.00
45345;BME280;31078;48.304;11.896;2023-05-11T04:47:36;95983.63;;;7.91;100.00
45345;BME280;31078;48.304;11.896;2023-05-11T04:50:03;95986.66;;;7.89;100.00
45345;BME280;31078;48.304;11.896;2023-05-11T04:52:30;95990.44;;;7.88;100.00
45345;BME280;31078;48.304;11.896;2023-05-11T04:54:57;95986.56;;;8.03;100.00
45345;BME280;31078;48.304;11.896;2023-05-11T04:57:24;95985.75;;;8.02;100.00
45345;BME280;31078;48.304;11.896;2023-05-11T04:59:50;95992.78;;;8.03;100.00
45345;BME280;31078;48.304;11.896;2023-05-11T05:02:17;95987.59;;;8.16;100.00
45345;BME280;31078;48.304;11.896;2023-05-11T05:04:44;95997.41;;;8.03;100.00
45345;BME280;31078;48.304;11.896;2023-05-11T05:07:10;95997.97;;;7.91;100.00
45345;BME280;31078;48.304;11.896;2023-05-11T05:09:37;95990.56;;;8.05;100.00
45345;BME280;31078;48.304;11.896;2023-05-11T05:12:05;95991.69;;;8.04;100.00
45345;BME280;31078;48.304;11.896;2023-05-11T05:14:31;95990.91;;;8.13;100.00
45345;BME280;31078;48.304;11.896;2023-05-11T05:16:58;95990.91;;;8.13;100.00
45345;BME280;31078;48.304;11.896;2023-05-11T05:19:25;95989.94;;;8.08;100.00
45345;BME280;31078;48.304;11.896;2023-05-11T05:21:52;95992.91;;;7.98;100.00
45345;BME280;31078;48.304;11.896;2023-05-11T05:24:18;95993.53;;;7.95;100.00
45345;BME280;31078;48.304;11.896;2023-05-11T05:26:44;95994.28;;;7.87;100.00
45345;BME280;31078;48.304;11.896;2023-05-11T05:29:12;95994.78;;;7.89;100.00
45345;BME280;31078;48.304;11.896;2023-05-11T05:31:39;95994.66;;;7.94;100.00
45345;BME280;31078;48.304;11.896;2023-05-11T05:34:05;96000.56;;;7.96;100.00
45345;BME280;31078;48.304;11.896;2023-05-11T05:36:32;95998.97;;;7.95;100.00
45345;BME280;31078;48.304;11.896;2023-05-11T05:38:58;95999.44;;;7.97;100.00
45345;BME280;31078;48.304;11.896;2023-05-11T05:41:24;96003.28;;;7.96;100.00
45345;BME280;31078;48.304;11.896;2023-05-11T05:43:51;96001.34;;;7.97;100.00
45345;BME280;31078;48.304;11.896;2023-05-11T05:46:19;96009.88;;;8.04;100.00
45345;BME280;31078;48.304;11.896;2023-05-11T05:48:45;95997.41;;;8.03;100.00
45345;BME280;31078;48.304;11.896;2023-05-11T05:51:12;95997.09;;;8.04;100.00
45345;BME280;31078;48.304;11.896;2023-05-11T05:53:38;95996.16;;;8.09;100.00
45345;BME280;31078;48.304;11.896;2023-05-11T05:56:05;96002.94;;;7.98;100.00
45345;BME280;31078;48.304;11.896;2023-05-11T05:58:32;96002.81;;;8.03;100.00
45345;BME280;31078;48.304;11.896;2023-05-11T06:00:59;96006.72;;;8.10;100.00
45345;BME280;31078;48.304;11.896;2023-05-11T06:03:27;96009.88;;;8.04;100.00
45345;BME280;31078;48.304;11.896;2023-05-11T06:05:53;96010.28;;;7.97;100.00
45345;BME280;31078;48.304;11.896;2023-05-11T06:08:20;96008.91;;;8.08;100.00
45345;BME280;31078;48.304;11.896;2023-05-11T06:10:46;96018.03;;;8.13;100.00
45345;BME280;31078;48.304;11.896;2023-05-11T06:13:13;96004.72;;;8.02;100.00
45345;BME280;31078;48.304;11.896;2023-05-11T06:15:39;96015.09;;;8.00;100.00
45345;BME280;31078;48.304;11.896;2023-05-11T06:18:06;96023.91;;;8.06;100.00
45345;BME280;31078;48.304;11.896;2023-05-11T06:20:34;96019.34;;;7.93;100.00
45345;BME280;31078;48.304;11.896;2023-05-11T06:23:00;96012.84;;;7.94;100.00
45345;BME280;31078;48.304;11.896;2023-05-11T06:25:26;96022.47;;;8.08;100.00
45345;BME280;31078;48.304;11.896;2023-05-11T06:27:53;96019.03;;;8.17;100.00
45345;BME280;31078;48.304;11.896;2023-05-11T06:30:20;96022.84;;;8.16;100.00
45345;BME280;31078;48.304;11.896;2023-05-11T06:32:46;96020.13;;;8.16;100.00
45345;BME280;31078;48.304;11.896;2023-05-11T06:35:13;96021.47;;;8.27;100.00
45345;BME280;31078;48.304;11.896;2023-05-11T06:37:41;96024.94;;;8.41;100.00
45345;BME280;31078;48.304;11.896;2023-05-11T06:40:08;96026.88;;;8.49;100.00
45345;BME280;31078;48.304;11.896;2023-05-11T06:42:35;96022.56;;;8.48;100.00
45345;BME280;31078;48.304;11.896;2023-05-11T06:45:01;96028.59;;;8.45;100.00
45345;BME280;31078;48.304;11.896;2023-05-11T06:47:28;96023.41;;;8.57;100.00
45345;BME280;31078;48.304;11.896;2023-05-11T06:49:54;96023.03;;;8.50;100.00
45345;BME280;31078;48.304;11.896;2023-05-11T06:52:21;96027.16;;;8.39;100.00
45345;BME280;31078;48.304;11.896;2023-05-11T06:54:49;96021.72;;;8.39;100.00
45345;BME280;31078;48.304;11.896;2023-05-11T06:57:15;96026.13;;;8.35;100.00
45345;BME280;31078;48.304;11.896;2023-05-11T06:59:42;96018.75;;;8.27;100.00
45345;BME280;31078;48.304;11.896;2023-05-11T07:02:09;96026.03;;;8.18;100.00
45345;BME280;31078;48.304;11.896;2023-05-11T07:04:35;96025.84;;;8.14;100.00
45345;BME280;31078;48.304;11.896;2023-05-11T07:07:02;96021.59;;;8.22;100.00
45345;BME280;31078;48.304;11.896;2023-05-11T07:09:28;96021.34;;;8.32;100.00
45345;BME280;31078;48.304;11.896;2023-05-11T07:11:56;96025.66;;;8.33;100.00
45345;BME280;31078;48.304;11.896;2023-05-11T07:14:23;96022.75;;;8.29;100.00
45345;BME280;31078;48.304;11.896;2023-05-11T07:16:49;96026.78;;;8.32;100.00
45345;BME280;31078;48.304;11.896;2023-05-11T07:19:17;96027.25;;;8.34;100.00
45345;BME280;31078;48.304;11.896;2023-05-11T07:21:43;96025.44;;;8.21;100.00
45345;BME280;31078;48.304;11.896;2023-05-11T07:24:10;96022.75;;;8.29;100.00
45345;BME280;31078;48.304;11.896;2023-05-11T07:26:36;96015.28;;;8.35;100.00
45345;BME280;31078;48.304;11.896;2023-05-11T07:29:04;96024.44;;;8.39;100.00
45345;BME280;31078;48.304;11.896;2023-05-11T07:31:30;96021.59;;;8.44;100.00
45345;BME280;31078;48.304;11.896;2023-05-11T07:33:57;96022.09;;;8.46;100.00
45345;BME280;31078;48.304;11.896;2023-05-11T07:36:24;96016.81;;;8.50;100.00
45345;BME280;31078;48.304;11.896;2023-05-11T07:38:50;96018.41;;;8.42;100.00
45345;BME280;31078;48.304;11.896;2023-05-11T07:41:17;96018.88;;;8.44;100.00
45345;BME280;31078;48.304;11.896;2023-05-11T07:43:45;96014.31;;;8.31;100.00
45345;BME280;31078;48.304;11.896;2023-05-11T07:46:13;96017.84;;;8.31;100.00
45345;BME280;31078;48.304;11.896;2023-05-11T07:48:39;96022.03;;;8.38;100.00
45345;BME280;31078;48.304;11.896;2023-05-11T07:51:06;96020.91;;;8.39;100.00
45345;BME280;31078;48.304;11.896;2023-05-11T07:53:33;96017.75;;;8.45;100.00
45345;BME280;31078;48.304;11.896;2023-05-11T07:55:59;96020.47;;;8.45;100.00
45345;BME280;31078;48.304;11.896;2023-05-11T07:58:27;96018.13;;;8.52;100.00
45345;BME280;31078;48.304;11.896;2023-05-11T08:00:55;96025.00;;;8.27;100.00
45345;BME280;31078;48.304;11.896;2023-05-11T08:03:23;96015.84;;;8.15;100.00
45345;BME280;31078;48.304;11.896;2023-05-11T08:05:49;96027.41;;;8.06;100.00
45345;BME280;31078;48.304;11.896;2023-05-11T08:08:16;96019.94;;;8.12;100.00
45345;BME280;31078;48.304;11.896;2023-05-11T08:10:42;96018.69;;;8.09;100.00
45345;BME280;31078;48.304;11.896;2023-05-11T08:13:09;96019.03;;;8.17;100.00
45345;BME280;31078;48.304;11.896;2023-05-11T08:15:35;96019.75;;;8.31;100.00
45345;BME280;31078;48.304;11.896;2023-05-11T08:18:02;96025.78;;;8.28;100.00
45345;BME280;31078;48.304;11.896;2023-05-11T08:20:30;96027.38;;;8.29;100.00
45345;BME280;31078;48.304;11.896;2023-05-11T08:22:56;96020.13;;;8.16;100.00
45345;BME280;31078;48.304;11.896;2023-05-11T08:25:23;96016.19;;;8.22;100.00
45345;BME280;31078;48.304;11.896;2023-05-11T08:27:49;96017.91;;;8.18;100.00
45345;BME280;31078;48.304;11.896;2023-05-11T08:30:16;96012.88;;;8.33;100.00
45345;BME280;31078;48.304;11.896;2023-05-11T08:32:43;96019.81;;;8.40;100.00
45345;BME280;31078;48.304;11.896;2023-05-11T08:35:11;96019.50;;;8.41;100.00
45345;BME280;31078;48.304;11.896;2023-05-11T08:37:39;96019.38;;;8.46;100.00
45345;BME280;31078;48.304;11.896;2023-05-11T08:40:06;96017.88;;;8.40;100.00
45345;BME280;31078;48.304;11.896;2023-05-11T08:42:33;96014.09;;;8.41;100.00
45345;BME280;31078;48.304;11.896;2023-05-11T08:45:01;96015.41;;;8.52;100.00
45345;BME280;31078;48.304;11.896;2023-05-11T08:47:29;96008.72;;;8.58;100.00
45345;BME280;31078;48.304;11.896;2023-05-11T08:49:56;96009.00;;;8.48;100.00
45345;BME280;31078;48.304;11.896;2023-05-11T08:52:24;96012.09;;;8.33;100.00
45345;BME280;31078;48.304;11.896;2023-05-11T08:54:52;96018.53;;;8.37;100.00
45345;BME280;31078;48.304;11.896;2023-05-11T08:57:19;96016.72;;;8.32;100.00
45345;BME280;31078;48.304;11.896;2023-05-11T08:59:46;96017.50;;;8.33;100.00
45345;BME280;31078;48.304;11.896;2023-05-11T09:02:16;96015.03;;;8.45;100.00
45345;BME280;31078;48.304;11.896;2023-05-11T09:04:43;96019.50;;;8.41;100.00
45345;BME280;31078;48.304;11.896;2023-05-11T09:07:10;96021.25;;;8.37;100.00
45345;BME280;31078;48.304;11.896;2023-05-11T09:09:37;96010.50;;;8.32;100.00
45345;BME280;31078;48.304;11.896;2023-05-11T09:12:07;96028.63;;;8.23;100.00
45345;BME280;31078;48.304;11.896;2023-05-11T09:14:33;96017.59;;;8.19;100.00
45345;BME280;31078;48.304;11.896;2023-05-11T09:17:01;96022.34;;;8.14;100.00
45345;BME280;31078;48.304;11.896;2023-05-11T09:19:29;96022.22;;;8.19;100.00
45345;BME280;31078;48.304;11.896;2023-05-11T09:21:55;96026.91;;;8.27;100.00
45345;BME280;31078;48.304;11.896;2023-05-11T09:24:22;96021.00;;;8.25;100.00
45345;BME280;31078;48.304;11.896;2023-05-11T09:26:48;96022.38;;;8.36;100.00
45345;BME280;31078;48.304;11.896;2023-05-11T09:29:18;96018.88;;;8.44;100.00
45345;BME280;31078;48.304;11.896;2023-05-11T09:31:45;96020.47;;;8.45;100.00
45345;BME280;31078;48.304;11.896;2023-05-11T09:34:14;96023.31;;;8.40;100.00
45345;BME280;31078;48.304;11.896;2023-05-11T09:36:40;96023.94;;;8.37;100.00
45345;BME280;31078;48.304;11.896;2023-05-11T09:39:07;96014.88;;;8.42;100.00
45345;BME280;31078;48.304;11.896;2023-05-11T09:41:34;96022.25;;;8.50;100.00
45345;BME280;31078;48.304;11.896;2023-05-11T09:44:05;96016.88;;;8.58;100.00
45345;BME280;31078;48.304;11.896;2023-05-11T09:46:34;96013.31;;;8.49;100.00
45345;BME280;31078;48.304;11.896;2023-05-11T09:49:01;96019.91;;;8.66;100.00
45345;BME280;31078;48.304;11.896;2023-05-11T09:51:29;96021.88;;;8.74;100.00
45345;BME280;31078;48.304;11.896;2023-05-11T09:53:57;96016.25;;;8.61;100.00
45345;BME280;31078;48.304;11.896;2023-05-11T09:56:42;96013.00;;;8.51;100.00
45345;BME280;31078;48.304;11.896;2023-05-11T09:59:09;96016.13;;;8.67;100.00
45345;BME280;31078;48.304;11.896;2023-05-11T10:01:39;96013.19;;;8.54;100.00
45345;BME280;31078;48.304;11.896;2023-05-11T10:04:06;96019.44;;;8.63;100.00
45345;BME280;31078;48.304;11.896;2023-05-11T10:06:44;96018.59;;;8.54;100.00
45345;BME280;31078;48.304;11.896;2023-05-11T10:09:12;96023.56;;;8.52;100.00
45345;BME280;31078;48.304;11.896;2023-05-11T10:11:42;96017.31;;;8.52;100.00
45345;BME280;31078;48.304;11.896;2023-05-11T10:14:10;96020.84;;;8.61;100.00
45345;BME280;31078;48.304;11.896;2023-05-11T10:16:40;96018.00;;;8.66;100.00
45345;BME280;31078;48.304;11.896;2023-05-11T10:19:07;96021.69;;;8.61;100.00
45345;BME280;31078;48.304;11.896;2023-05-11T10:21:34;96022.69;;;8.74;100.00
45345;BME280;31078;48.304;11.896;2023-05-11T10:24:02;96020.41;;;8.68;100.00
45345;BME280;31078;48.304;11.896;2023-05-11T10:26:29;96015.59;;;8.65;100.00
45345;BME280;31078;48.304;11.896;2023-05-11T10:28:56;96021.81;;;8.56;100.00
45345;BME280;31078;48.304;11.896;2023-05-11T10:31:23;96013.34;;;8.58;100.00
45345;BME280;31078;48.304;11.896;2023-05-11T10:33:52;96015.59;;;8.65;100.00
45345;BME280;31078;48.304;11.896;2023-05-11T10:36:22;96015.03;;;8.45;100.00
45345;BME280;31078;48.304;11.896;2023-05-11T10:38:49;96013.81;;;8.51;100.00
45345;BME280;31078;48.304;11.896;2023-05-11T10:41:27;96015.75;;;8.59;100.00
45345;BME280;31078;48.304;11.896;2023-05-11T10:44:11;96008.38;;;8.51;100.00
45345;BME280;31078;48.304;11.896;2023-05-11T10:46:56;96007.72;;;8.46;100.00
45345;BME280;31078;48.304;11.896;2023-05-11T10:49:44;96010.47;;;8.54;100.00
45345;BME280;31078;48.304;11.896;2023-05-11T10:52:39;96007.13;;;8.57;100.00
45345;BME280;31078;48.304;11.896;2023-05-11T10:55:12;96001.13;;;8.78;100.00
45345;BME280;31078;48.304;11.896;2023-05-11T10:57:56;96003.56;;;8.88;100.00
45345;BME280;31078;48.304;11.896;2023-05-11T11:03:32;95994.84;;;8.60;100.00
45345;BME280;31078;48.304;11.896;2023-05-11T11:06:00;95994.03;;;8.59;100.00
45345;BME280;31078;48.304;11.896;2023-05-11T11:08:27;95998.84;;;8.62;100.00
45345;BME280;31078;48.304;11.896;2023-05-11T11:10:54;96002.72;;;8.79;100.00
45345;BME280;31078;48.304;11.896;2023-05-11T11:13:21;95995.06;;;8.81;100.00
45345;BME280;31078;48.304;11.896;2023-05-11T11:16:07;95997.31;;;8.79;100.00
45345;BME280;31078;48.304;11.896;2023-05-11T11:18:34;95996.22;;;8.88;100.00
45345;BME280;31078;48.304;11.896;2023-05-11T11:21:02;95996.84;;;8.85;100.00
45345;BME280;31078;48.304;11.896;2023-05-11T11:23:43;95996.94;;;8.72;100.00
45345;BME280;31078;48.304;11.896;2023-05-11T11:26:11;96001.28;;;8.73;100.00
45345;BME280;31078;48.304;11.896;2023-05-11T11:29:08;95993.94;;;8.82;100.00
45345;BME280;31078;48.304;11.896;2023-05-11T11:31:37;95988.97;;;8.67;100.00
45345;BME280;31078;48.304;11.896;2023-05-11T11:37:08;95998.00;;;8.93;100.00
45345;BME280;31078;48.304;11.896;2023-05-11T11:39:46;95989.50;;;8.86;100.00
45345;BME280;31078;48.304;11.896;2023-05-11T11:42:15;95984.19;;;8.81;100.00
45345;BME280;31078;48.304;11.896;2023-05-11T11:44:43;95988.72;;;8.94;100.00
45345;BME280;31078;48.304;11.896;2023-05-11T11:47:10;95990.94;;;8.83;100.00
45345;BME280;31078;48.304;11.896;2023-05-11T11:49:37;95995.84;;;8.73;100.00
45345;BME280;31078;48.304;11.896;2023-05-11T11:52:04;95996.31;;;8.75;100.00
45345;BME280;31078;48.304;11.896;2023-05-11T11:54:39;96001.00;;;8.83;100.00
45345;BME280;31078;48.304;11.896;2023-05-11T12:00:09;95998.91;;;8.80;100.00
45345;BME280;31078;48.304;11.896;2023-05-11T12:02:39;95995.72;;;8.86;100.00
45345;BME280;31078;48.304;11.896;2023-05-11T12:05:09;95996.66;;;8.82;100.00
45345;BME280;31078;48.304;11.896;2023-05-11T12:07:40;95999.88;;;8.84;100.00
45345;BME280;31078;48.304;11.896;2023-05-11T12:10:11;95994.91;;;8.77;100.00
45345;BME280;31078;48.304;11.896;2023-05-11T12:12:38;95998.13;;;8.88;100.00
45345;BME280;31078;48.304;11.896;2023-05-11T12:15:06;95997.59;;;8.69;100.00
45345;BME280;31078;48.304;11.896;2023-05-11T12:17:37;95997.16;;;8.84;100.00
45345;BME280;31078;48.304;11.896;2023-05-11T12:20:11;96000.63;;;8.76;100.00
45345;BME280;31078;48.304;11.896;2023-05-11T12:22:37;95996.03;;;8.85;100.00
45345;BME280;31078;48.304;11.896;2023-05-11T12:25:07;96001.63;;;8.80;100.00
45345;BME280;31078;48.304;11.896;2023-05-11T12:27:45;95993.97;;;8.91;100.00
45345;BME280;31078;48.304;11.896;2023-05-11T12:30:18;95998.78;;;9.02;100.00
45345;BME280;31078;48.304;11.896;2023-05-11T12:32:45;95991.13;;;9.13;100.00
45345;BME280;31078;48.304;11.896;2023-05-11T12:35:11;96003.41;;;8.93;100.00
45345;BME280;31078;48.304;11.896;2023-05-11T12:37:40;95994.16;;;8.94;100.00
45345;BME280;31078;48.304;11.896;2023-05-11T12:40:09;95995.78;;;9.04;100.00
45345;BME280;31078;48.304;11.896;2023-05-11T12:42:37;96001.34;;;8.99;100.00
45345;BME280;31078;48.304;11.896;2023-05-11T12:45:05;95994.97;;;9.03;100.00
45345;BME280;31078;48.304;11.896;2023-05-11T12:47:32;95996.06;;;9.02;100.00
45345;BME280;31078;48.304;11.896;2023-05-11T12:50:00;95990.66;;;9.11;100.00
45345;BME280;31078;48.304;11.896;2023-05-11T12:52:27;95992.28;;;9.21;100.00
45345;BME280;31078;48.304;11.896;2023-05-11T12:54:54;95993.41;;;9.20;100.00
45345;BME280;31078;48.304;11.896;2023-05-11T12:57:24;95990.00;;;8.97;100.00
45345;BME280;31078;48.304;11.896;2023-05-11T13:00:07;95987.91;;;8.85;100.00
45345;BME280;31078;48.304;11.896;2023-05-11T13:02:42;95984.38;;;8.84;100.00
45345;BME280;31078;48.304;11.896;2023-05-11T13:05:10;95980.88;;;8.84;100.00
45345;BME280;31078;48.304;11.896;2023-05-11T13:07:37;95975.91;;;8.86;100.00